Portada
METAR-TAF:

METAR-TAF

Aeroports :

Al-Hassà, Aràbia Saudita

latitud: 25-18N, longitud: 049-29E, altitud: 179 m

Observació

L'informe es va fer fa 30 minuts, a les 07:00 UTC
Vent 23 kt del Nord
Temperatura 40°C
Humitat 14%
Pressió 1000 hPa
Visibilitat: 3500 m
torb alta de sora

METAR: OEAH 200700Z 36023KT 3500 BLSA NSC 40/07 Q1000 NOSIG

Hora: 10:30 (07:30 UTC)

Pronòstic

L'informe es va fer fa 8 hores i 30 minuts, a les 23:00 UTC
Pronòstic vàlid del 20 a les 00 UTC al 21 a les 06 UTC
Vent 8 kt del Oest/Nord-Oest
Visibilitat: 7000 m
Evolucionant progressivament
l' 20 a les 06 UTC al 20 a les 08 UTC
Vent 10 kt del Nord amb ràfegues de 20 kt
Temporalment
l' 20 a les 06 UTC al 20 a les 14 UTC
Visibilitat: 4000 m
Pols estès, torb alta de pols
Probabilitat 40% :
Temporalment
l' 20 a les 09 UTC al 20 a les 12 UTC
Visibilitat: 2000 m

TAF: OEAH 192300Z 2000/2106 30008KT 7000 NSC BECMG 2006/2008 35010G20KT TEMPO 2006/2014 4000 DU BLDU PROB40 TEMPO 2009/2012 2000

Observacions i pronòstics meteorològics de més de 4000 aeroports (METAR i TAF).

Les estacions disponibles són els punts grocs i vermells al mapa.

Posi el ratolí al punt desitjat per veure el nom de l'estació.

Feu clic per veure les observacions i els pronòstics meteorològics.

Per canviar el mapa: feu clic els botons verds amb una creu de color negre per apropar; al botó verd amb un guió per allunyar la imatge; o en les fletxes verdes per a mapes adjacents.


METAR-TAF: